Pagrindinis puslapis
METAR-TAF:

METAR-TAF

Oro uostai :

Oulu, Suomija

platuma: 64-56N, ilguma: 025-22E, Aukštis: 12 m

Dabartinis oras

Ataskaita buvo paskelbta 28 minutes, ne 12:50 UTC
Vėjas 7 kt iš Šiaurės
Temperatūra 21°C
Drėgmė 38%
Slėgis 1024 hPa
Matomumas 10 km arba daugiau
nėra debesų žemiau 1500 m ir nėra kamuolinių lietaus debesų

METAR: EFOU 011250Z AUTO 35007KT CAVOK 21/06 Q1024

Laikas: 16:18 (13:18 UTC)

Prognozė

Ataskaita buvo paskelbta 1 valandą ir 55 minutes, ne 11:23 UTC
Prognozė galioja nuo 01 metu 12 UTC su 02 metu 12 UTC
Vėjas 10 kt iš Šiaurės/Šiaurės Vakarų
Matomumas 10 km arba daugiau
nėra debesų žemiau 1500 m ir nėra kamuolinių lietaus debesų
Tapsmas
nuo 01 metu 16 UTC su 01 metu 18 UTC
Vėjas 4 kt iš Pietryčių

TAF: EFOU 011123Z 0112/0212 33010KT CAVOK BECMG 0116/0118 13004KT

Orai ataskaitas ir orų prognozės (METAR, TAF).

turimą stotys yra geltonos ir raudonos taškus žemėlapyje.

Perkelti pele per norėdami pamatyti stoties vardą.

Tada spustelėkite, norėdami matyti oro stebėjimo ir prognozės.

Norėdami pakeisti žemėlapį: spustelėkite ant žalios mygtukų su juodo kryžiaus žemyn,; žalią mygtuką su brūkšneliu, jei norite nutolinti; arba žalių rodyklių gretimoms žemėlapius.


METAR-TAF: